createdAt,value
2023-01-29T00:00:14.362Z,88.04
2023-01-29T00:02:42.901Z,88.13
2023-01-29T00:05:26.375Z,87.39
2023-01-29T00:07:57.568Z,88.03
2023-01-29T00:10:26.806Z,88.00
2023-01-29T00:12:54.975Z,87.55
2023-01-29T00:15:22.998Z,88.34
2023-01-29T00:17:51.176Z,87.52
2023-01-29T00:20:19.550Z,88.07
2023-01-29T00:22:47.695Z,87.41
2023-01-29T00:25:17.446Z,88.38
2023-01-29T00:27:45.804Z,88.23
2023-01-29T00:30:19.359Z,88.02
2023-01-29T00:32:47.730Z,88.60
2023-01-29T00:35:15.786Z,88.10
2023-01-29T00:37:43.849Z,87.91
2023-01-29T00:40:12.687Z,87.77
2023-01-29T00:42:59.736Z,88.64
2023-01-29T00:45:27.793Z,87.99
2023-01-29T00:47:55.816Z,88.08
2023-01-29T00:50:23.896Z,88.65
2023-01-29T00:52:53.049Z,88.52
2023-01-29T00:55:21.244Z,88.41
2023-01-29T00:57:51.161Z,88.79
2023-01-29T01:00:20.548Z,88.00
2023-01-29T01:03:06.014Z,88.23
2023-01-29T01:05:34.095Z,88.33
2023-01-29T01:08:02.307Z,88.21
2023-01-29T01:10:31.813Z,88.88
2023-01-29T01:13:03.178Z,88.75
2023-01-29T01:15:33.296Z,89.15
2023-01-29T01:18:03.082Z,89.65
2023-01-29T01:20:35.010Z,89.41
2023-01-29T01:23:03.141Z,89.51
2023-01-29T01:25:31.212Z,90.88
2023-01-29T01:28:02.194Z,90.28
2023-01-29T01:30:30.422Z,90.47
2023-01-29T01:32:58.481Z,90.03
2023-01-29T01:35:26.640Z,90.30
2023-01-29T01:37:54.899Z,90.58
2023-01-29T01:40:24.893Z,90.24
2023-01-29T01:42:54.883Z,90.07
2023-01-29T01:45:27.588Z,90.43
2023-01-29T01:48:01.585Z,90.37
2023-01-29T01:50:34.951Z,90.27
2023-01-29T01:53:07.999Z,89.86
2023-01-29T01:55:39.460Z,89.83
2023-01-29T01:58:11.547Z,90.28
2023-01-29T02:00:41.973Z,90.74
2023-01-29T02:03:30.205Z,90.45
2023-01-29T02:06:18.984Z,89.78
2023-01-29T02:09:11.722Z,89.99
2023-01-29T02:11:40.048Z,90.38
2023-01-29T02:14:08.516Z,90.84
2023-01-29T02:16:38.544Z,90.67
2023-01-29T02:19:12.428Z,90.73
2023-01-29T02:22:02.169Z,91.53
2023-01-29T02:24:58.970Z,92.19
2023-01-29T02:27:40.564Z,91.77
2023-01-29T02:30:18.617Z,91.99
2023-01-29T02:32:58.443Z,91.81
2023-01-29T02:35:32.271Z,92.26
2023-01-29T02:38:10.915Z,93.25
2023-01-29T02:40:45.105Z,93.73
2023-01-29T02:43:28.767Z,94.74
2023-01-29T02:46:06.643Z,95.19
2023-01-29T02:48:42.662Z,95.25
2023-01-29T02:51:19.405Z,94.46
2023-01-29T02:53:54.834Z,94.91
2023-01-29T02:56:29.068Z,94.76
2023-01-29T02:59:04.148Z,95.26
2023-01-29T03:01:40.115Z,95.69
2023-01-29T03:04:14.877Z,96.36
2023-01-29T03:06:47.725Z,96.38
2023-01-29T03:09:24.252Z,96.33
2023-01-29T03:11:55.843Z,96.47
2023-01-29T03:14:48.711Z,97.39
2023-01-29T03:17:19.329Z,97.16
2023-01-29T03:19:48.408Z,96.45
2023-01-29T03:22:19.046Z,96.32
2023-01-29T03:25:09.476Z,96.59
2023-01-29T03:28:00.178Z,96.17
2023-01-29T03:30:48.197Z,96.33
2023-01-29T03:33:20.931Z,96.22
2023-01-29T03:35:54.724Z,95.92
2023-01-29T03:38:23.358Z,96.03
2023-01-29T03:40:56.332Z,95.54
2023-01-29T03:43:35.057Z,95.19
2023-01-29T03:46:08.946Z,96.20
2023-01-29T03:48:42.999Z,96.10
2023-01-29T03:51:22.085Z,95.42
2023-01-29T03:53:54.864Z,95.30
2023-01-29T03:56:35.787Z,95.22
2023-01-29T03:59:14.531Z,95.61
2023-01-29T04:01:49.317Z,96.10
2023-01-29T04:04:23.882Z,96.17
2023-01-29T04:06:54.173Z,96.50
2023-01-29T04:09:26.548Z,97.57
2023-01-29T04:12:07.337Z,97.30
2023-01-29T04:14:35.924Z,97.20
2023-01-29T04:17:10.584Z,97.95
2023-01-29T04:19:40.671Z,99.12
2023-01-29T04:22:15.153Z,100.00
2023-01-29T04:24:44.117Z,100.00
2023-01-29T04:27:27.550Z,100.00
2023-01-29T04:30:07.982Z,100.00
2023-01-29T04:32:50.852Z,100.00
2023-01-29T04:35:30.512Z,100.00
2023-01-29T04:38:10.201Z,100.00
2023-01-29T04:40:51.952Z,100.00
2023-01-29T04:43:28.186Z,100.00
2023-01-29T04:46:10.324Z,100.00
2023-01-29T04:48:49.018Z,100.00
2023-01-29T04:51:24.460Z,100.00
2023-01-29T04:53:59.559Z,100.00
2023-01-29T04:56:33.835Z,100.00
2023-01-29T04:59:06.547Z,100.00
2023-01-29T05:01:36.914Z,100.00
2023-01-29T05:04:10.008Z,100.00
2023-01-29T05:06:40.810Z,100.00
2023-01-29T05:09:09.461Z,100.00
2023-01-29T05:11:38.377Z,100.00
2023-01-29T05:14:09.979Z,100.00
2023-01-29T05:16:44.063Z,100.00
2023-01-29T05:19:13.839Z,100.00
2023-01-29T05:21:45.794Z,100.00
2023-01-29T05:24:16.751Z,100.00
2023-01-29T05:27:03.717Z,100.00
2023-01-29T05:29:31.734Z,100.00
2023-01-29T05:32:00.096Z,100.00
2023-01-29T05:34:28.201Z,100.00
2023-01-29T05:36:57.560Z,100.00
2023-01-29T05:39:25.680Z,100.00
2023-01-29T05:41:53.695Z,100.00
2023-01-29T05:44:21.871Z,100.00
2023-01-29T05:46:50.938Z,100.00
2023-01-29T05:49:20.547Z,100.00
2023-01-29T05:51:48.582Z,100.00
2023-01-29T05:54:18.054Z,100.00
2023-01-29T05:56:46.159Z,100.00
2023-01-29T05:59:14.742Z,100.00
2023-01-29T06:01:43.099Z,100.00
2023-01-29T06:04:11.161Z,100.00
2023-01-29T06:06:39.313Z,100.00
2023-01-29T06:09:07.376Z,100.00
2023-01-29T06:11:36.893Z,100.00
2023-01-29T06:14:05.394Z,100.00
2023-01-29T06:16:33.994Z,100.00
2023-01-29T06:19:02.132Z,100.00
2023-01-29T06:21:30.689Z,100.00
2023-01-29T06:23:58.819Z,100.00
2023-01-29T06:26:26.864Z,100.00
2023-01-29T06:28:57.701Z,100.00
2023-01-29T06:31:37.701Z,100.00
2023-01-29T06:34:07.179Z,100.00
2023-01-29T06:36:35.607Z,100.00
2023-01-29T06:39:04.244Z,100.00
2023-01-29T06:41:32.536Z,100.00
2023-01-29T06:44:02.055Z,100.00
2023-01-29T06:46:30.411Z,100.00
2023-01-29T06:49:00.505Z,100.00
2023-01-29T06:51:28.721Z,100.00
2023-01-29T06:53:57.042Z,100.00
2023-01-29T06:56:25.442Z,100.00
2023-01-29T06:58:53.523Z,99.79
2023-01-29T07:01:35.141Z,98.74
2023-01-29T07:04:04.353Z,98.58
2023-01-29T07:06:32.783Z,97.20
2023-01-29T07:09:01.091Z,97.95
2023-01-29T07:11:29.298Z,99.22
2023-01-29T07:13:57.521Z,97.97
2023-01-29T07:16:27.421Z,98.52
2023-01-29T07:18:56.891Z,98.42
2023-01-29T07:21:25.110Z,99.59
2023-01-29T07:23:53.113Z,100.00
2023-01-29T07:26:21.277Z,100.00
2023-01-29T07:28:49.343Z,100.00
2023-01-29T07:31:17.577Z,100.00
2023-01-29T07:33:47.375Z,100.00
2023-01-29T07:36:15.785Z,100.00
2023-01-29T07:38:43.927Z,100.00
2023-01-29T07:41:13.111Z,100.00
2023-01-29T07:43:41.264Z,100.00
2023-01-29T07:46:09.400Z,100.00
2023-01-29T07:48:37.561Z,100.00
2023-01-29T07:51:07.347Z,100.00
2023-01-29T07:53:35.998Z,100.00
2023-01-29T07:56:04.463Z,100.00
2023-01-29T07:58:33.894Z,100.00
2023-01-29T08:01:08.053Z,100.00
2023-01-29T08:03:36.857Z,100.00
2023-01-29T08:06:06.747Z,100.00
2023-01-29T08:08:35.820Z,100.00
2023-01-29T08:11:05.761Z,100.00
2023-01-29T08:13:35.155Z,100.00
2023-01-29T08:16:04.205Z,100.00
2023-01-29T08:18:39.550Z,100.00
2023-01-29T08:21:09.645Z,100.00
2023-01-29T08:23:38.222Z,100.00
2023-01-29T08:26:07.060Z,100.00
2023-01-29T08:28:36.007Z,100.00
2023-01-29T08:31:04.466Z,100.00
2023-01-29T08:33:38.941Z,100.00
2023-01-29T08:36:10.915Z,100.00
2023-01-29T08:38:39.554Z,100.00
2023-01-29T08:41:08.487Z,100.00
2023-01-29T08:43:37.307Z,100.00
2023-01-29T08:46:06.207Z,100.00
2023-01-29T08:48:35.031Z,100.00
2023-01-29T08:51:04.629Z,100.00
2023-01-29T08:53:34.502Z,100.00
2023-01-29T08:56:02.761Z,100.00
2023-01-29T08:58:30.919Z,100.00
2023-01-29T09:01:07.159Z,100.00
2023-01-29T09:03:35.322Z,100.00
2023-01-29T09:06:03.802Z,100.00
2023-01-29T09:08:33.321Z,100.00
2023-01-29T09:11:01.579Z,100.00
2023-01-29T09:13:29.678Z,100.00
2023-01-29T09:16:00.631Z,100.00
2023-01-29T09:18:29.388Z,100.00
2023-01-29T09:20:58.244Z,100.00
2023-01-29T09:23:26.446Z,100.00
2023-01-29T09:25:56.259Z,100.00
2023-01-29T09:28:24.996Z,100.00
2023-01-29T09:30:53.919Z,100.00
2023-01-29T09:33:25.399Z,100.00
2023-01-29T09:35:53.764Z,100.00
2023-01-29T09:38:22.084Z,100.00
2023-01-29T09:41:01.691Z,100.00
2023-01-29T09:43:44.677Z,100.00
2023-01-29T09:46:21.232Z,100.00
2023-01-29T09:48:53.711Z,100.00
2023-01-29T09:51:29.905Z,99.96
2023-01-29T09:54:09.125Z,98.06
2023-01-29T09:56:38.955Z,98.87
2023-01-29T09:59:07.668Z,98.67
2023-01-29T10:01:42.491Z,99.69
2023-01-29T10:04:38.176Z,99.98
2023-01-29T10:07:28.185Z,100.00
2023-01-29T10:10:21.588Z,99.71
2023-01-29T10:13:08.174Z,97.39
2023-01-29T10:15:55.396Z,97.61
2023-01-29T10:18:55.150Z,97.56
2023-01-29T10:21:40.670Z,96.80
2023-01-29T10:24:18.763Z,96.50
2023-01-29T10:26:47.054Z,95.55
2023-01-29T10:29:22.285Z,95.35
2023-01-29T10:31:57.658Z,94.97
2023-01-29T10:34:33.986Z,93.76
2023-01-29T10:37:13.421Z,92.44
2023-01-29T10:39:42.321Z,93.46
2023-01-29T10:42:24.509Z,92.80
2023-01-29T10:45:08.371Z,91.58
2023-01-29T10:48:04.638Z,89.29
2023-01-29T10:50:49.753Z,89.26
2023-01-29T10:53:29.078Z,90.62
2023-01-29T10:56:20.908Z,89.33
2023-01-29T10:58:55.502Z,88.69
2023-01-29T11:01:26.883Z,89.25
2023-01-29T11:04:00.691Z,89.33
2023-01-29T11:06:33.442Z,89.41
2023-01-29T11:09:08.184Z,90.03
2023-01-29T11:11:43.009Z,87.89
2023-01-29T11:14:15.648Z,86.21
2023-01-29T11:16:48.172Z,86.48
2023-01-29T11:19:17.670Z,85.25
2023-01-29T11:21:54.849Z,84.87
2023-01-29T11:24:23.195Z,84.13
2023-01-29T11:26:54.027Z,83.94
2023-01-29T11:29:35.644Z,84.24
2023-01-29T11:32:07.844Z,83.65
2023-01-29T11:34:36.330Z,84.16
2023-01-29T11:37:16.350Z,83.40
2023-01-29T11:39:48.501Z,83.93
2023-01-29T11:42:21.883Z,83.53
2023-01-29T11:44:52.981Z,83.70
2023-01-29T11:47:25.538Z,82.13
2023-01-29T11:49:56.491Z,81.77
2023-01-29T11:52:28.653Z,81.85
2023-01-29T11:55:02.683Z,81.09
2023-01-29T11:57:35.625Z,81.30
2023-01-29T12:00:08.113Z,81.13
2023-01-29T12:02:40.769Z,81.35
2023-01-29T12:05:18.820Z,80.48
2023-01-29T12:07:50.649Z,79.65
2023-01-29T12:10:36.659Z,80.49
2023-01-29T12:13:20.199Z,80.76
2023-01-29T12:15:49.519Z,79.85
2023-01-29T12:18:27.682Z,79.66
2023-01-29T12:21:06.339Z,79.39
2023-01-29T12:23:43.228Z,78.94
2023-01-29T12:26:16.149Z,78.02
2023-01-29T12:28:56.197Z,77.90
2023-01-29T12:31:34.741Z,77.63
2023-01-29T12:34:12.552Z,76.10
2023-01-29T12:36:45.232Z,75.89
2023-01-29T12:39:18.213Z,76.27
2023-01-29T12:41:52.579Z,76.77
2023-01-29T12:44:25.566Z,77.04
2023-01-29T12:46:57.623Z,76.55
2023-01-29T12:49:31.698Z,75.74
2023-01-29T12:52:08.883Z,75.65
2023-01-29T12:54:44.405Z,75.79
2023-01-29T12:57:26.872Z,76.50
2023-01-29T13:00:03.346Z,76.96
2023-01-29T13:02:44.047Z,76.72
2023-01-29T13:05:23.636Z,75.86
2023-01-29T13:07:59.408Z,76.34
2023-01-29T13:10:32.031Z,76.55
2023-01-29T13:13:15.398Z,76.52
2023-01-29T13:15:45.589Z,75.23
2023-01-29T13:18:34.957Z,76.20
2023-01-29T13:21:06.471Z,75.89
2023-01-29T13:23:39.868Z,74.37
2023-01-29T13:26:09.007Z,73.50
2023-01-29T13:28:38.029Z,74.00
2023-01-29T13:31:25.901Z,73.28
2023-01-29T13:33:57.237Z,73.01
2023-01-29T13:36:30.208Z,73.02
2023-01-29T13:39:04.929Z,72.24
2023-01-29T13:41:39.808Z,72.95
2023-01-29T13:44:19.811Z,73.15
2023-01-29T13:46:54.441Z,73.26
2023-01-29T13:49:38.824Z,71.75
2023-01-29T13:52:25.547Z,71.53
2023-01-29T13:54:58.793Z,72.59
2023-01-29T13:57:53.931Z,73.10
2023-01-29T14:00:56.779Z,72.53
2023-01-29T14:04:04.794Z,72.86
2023-01-29T14:06:52.202Z,73.34
2023-01-29T14:09:57.222Z,74.03
2023-01-29T14:12:48.365Z,73.25
2023-01-29T14:15:25.936Z,74.00
2023-01-29T14:18:28.736Z,73.77
2023-01-29T14:21:06.413Z,72.43
2023-01-29T14:23:43.011Z,72.91
2023-01-29T14:26:28.418Z,72.92
2023-01-29T14:29:05.997Z,72.77
2023-01-29T14:31:44.137Z,73.40
2023-01-29T14:34:20.569Z,72.83
2023-01-29T14:36:55.452Z,73.06
2023-01-29T14:39:38.668Z,73.73
2023-01-29T14:42:20.268Z,74.01
2023-01-29T14:45:00.866Z,74.53
2023-01-29T14:47:57.831Z,74.11
2023-01-29T14:50:48.337Z,74.58
2023-01-29T14:53:24.496Z,75.06
2023-01-29T14:55:59.997Z,75.80
2023-01-29T14:58:38.541Z,76.11
2023-01-29T15:01:17.222Z,76.62
2023-01-29T15:03:49.139Z,77.55
2023-01-29T15:06:21.491Z,77.73
2023-01-29T15:08:57.118Z,78.13
2023-01-29T15:11:35.369Z,78.71
2023-01-29T15:14:25.106Z,79.31
2023-01-29T15:17:04.437Z,79.27
2023-01-29T15:19:45.099Z,79.15
2023-01-29T15:22:14.828Z,79.37
2023-01-29T15:24:44.711Z,79.64
2023-01-29T15:27:17.070Z,79.97
2023-01-29T15:29:50.298Z,80.79
2023-01-29T15:32:30.777Z,80.25
2023-01-29T15:35:00.983Z,80.72
2023-01-29T15:37:32.151Z,81.62
2023-01-29T15:40:01.483Z,81.88
2023-01-29T15:42:42.794Z,81.93
2023-01-29T15:45:23.473Z,82.43
2023-01-29T15:47:55.551Z,82.63
2023-01-29T15:50:27.516Z,82.38
2023-01-29T15:52:57.392Z,82.49
2023-01-29T15:55:31.194Z,82.42
2023-01-29T15:58:00.990Z,82.30
2023-01-29T16:00:30.845Z,83.34
2023-01-29T16:03:01.773Z,83.16
2023-01-29T16:05:37.985Z,83.61
2023-01-29T16:08:07.879Z,83.74
2023-01-29T16:10:39.003Z,84.18
2023-01-29T16:13:13.713Z,84.35
2023-01-29T16:15:56.815Z,84.92
2023-01-29T16:18:31.669Z,84.87
2023-01-29T16:21:01.856Z,85.03
2023-01-29T16:23:33.671Z,85.35
2023-01-29T16:26:04.996Z,85.05
2023-01-29T16:28:33.715Z,85.56
2023-01-29T16:31:04.530Z,85.57
2023-01-29T16:33:37.765Z,86.15
2023-01-29T16:36:15.577Z,85.43
2023-01-29T16:38:48.107Z,85.87
2023-01-29T16:41:21.441Z,85.50
2023-01-29T16:44:31.267Z,85.11
2023-01-29T16:47:12.909Z,85.04
2023-01-29T16:49:50.938Z,85.98
2023-01-29T16:52:21.652Z,86.33
2023-01-29T16:54:49.956Z,85.99
2023-01-29T16:57:21.636Z,86.41
2023-01-29T16:59:51.174Z,86.71
2023-01-29T17:02:25.042Z,86.98
2023-01-29T17:05:04.600Z,87.22
2023-01-29T17:07:34.522Z,87.54
2023-01-29T17:10:09.028Z,88.17
2023-01-29T17:12:39.000Z,88.29
2023-01-29T17:15:32.926Z,88.11
2023-01-29T17:18:01.454Z,88.13
2023-01-29T17:20:33.647Z,87.84
2023-01-29T17:23:02.489Z,88.11
2023-01-29T17:25:30.945Z,88.09
2023-01-29T17:28:02.270Z,87.99
2023-01-29T17:30:35.263Z,88.12
2023-01-29T17:33:10.266Z,88.37
2023-01-29T17:35:40.189Z,87.42
2023-01-29T17:38:25.054Z,88.26
2023-01-29T17:40:58.613Z,87.59
2023-01-29T17:43:27.253Z,87.34
2023-01-29T17:45:57.234Z,87.24
2023-01-29T17:48:27.336Z,87.87
2023-01-29T17:51:00.156Z,87.92
2023-01-29T17:53:43.325Z,87.35
2023-01-29T17:56:17.450Z,86.99
2023-01-29T17:58:46.224Z,86.73
2023-01-29T18:01:14.469Z,86.90
2023-01-29T18:03:42.978Z,86.21
2023-01-29T18:06:20.134Z,85.77
2023-01-29T18:08:48.213Z,85.64
2023-01-29T18:11:16.396Z,85.50
2023-01-29T18:13:44.698Z,85.27
2023-01-29T18:16:12.957Z,85.03
2023-01-29T18:18:41.240Z,85.77
2023-01-29T18:21:09.269Z,85.57
2023-01-29T18:23:39.505Z,85.78
2023-01-29T18:26:08.338Z,85.83
2023-01-29T18:28:36.520Z,86.07
2023-01-29T18:31:06.763Z,86.72
2023-01-29T18:36:38.636Z,87.72
2023-01-29T18:39:08.196Z,88.38
2023-01-29T18:41:36.299Z,88.48
2023-01-29T18:44:04.393Z,89.34
2023-01-29T18:46:32.507Z,89.34
2023-01-29T18:49:00.675Z,89.46
2023-01-29T18:51:28.892Z,89.83
2023-01-29T18:53:56.962Z,89.49
2023-01-29T18:56:26.436Z,89.71
2023-01-29T18:58:56.706Z,89.68
2023-01-29T19:01:27.338Z,89.53
2023-01-29T19:03:56.293Z,90.14
2023-01-29T19:06:25.042Z,89.27
2023-01-29T19:11:52.874Z,90.03
2023-01-29T19:14:49.766Z,90.02
2023-01-29T19:17:18.097Z,90.36
2023-01-29T19:19:48.512Z,90.11
2023-01-29T19:22:16.695Z,89.59
2023-01-29T19:24:44.688Z,89.62
2023-01-29T19:27:14.231Z,89.45
2023-01-29T19:29:42.669Z,88.90
2023-01-29T19:32:10.833Z,89.08
2023-01-29T19:34:38.951Z,88.83
2023-01-29T19:37:06.999Z,89.04
2023-01-29T19:39:35.336Z,88.72
2023-01-29T19:42:03.725Z,87.92
2023-01-29T19:44:33.496Z,88.08
2023-01-29T19:47:02.294Z,88.35
2023-01-29T19:49:30.707Z,87.76
2023-01-29T19:51:59.111Z,87.81
2023-01-29T19:54:29.581Z,87.16
2023-01-29T19:56:58.179Z,87.13
2023-01-29T19:59:26.323Z,87.56
2023-01-29T20:01:55.965Z,87.73
2023-01-29T20:04:24.122Z,87.77
2023-01-29T20:06:52.370Z,87.72
2023-01-29T20:09:20.479Z,87.01
2023-01-29T20:11:48.760Z,87.30
2023-01-29T20:14:17.215Z,86.95
2023-01-29T20:16:45.703Z,86.98
2023-01-29T20:19:16.147Z,87.00
2023-01-29T20:22:16.413Z,86.95
2023-01-29T20:24:46.638Z,86.60
2023-01-29T20:27:15.105Z,87.29
2023-01-29T20:29:43.902Z,87.32
2023-01-29T20:32:11.974Z,87.78
2023-01-29T20:34:43.215Z,87.41
2023-01-29T20:37:11.403Z,87.75
2023-01-29T20:39:39.699Z,86.65
2023-01-29T20:42:07.932Z,86.94
2023-01-29T20:44:36.183Z,87.04
2023-01-29T20:47:04.425Z,87.03
2023-01-29T20:49:33.230Z,86.93
2023-01-29T20:52:02.848Z,87.88
2023-01-29T20:54:33.460Z,87.51
2023-01-29T20:57:01.835Z,87.39
2023-01-29T20:59:30.622Z,87.25
2023-01-29T21:01:58.768Z,88.26
2023-01-29T21:04:27.422Z,88.23
2023-01-29T21:06:55.439Z,88.03
2023-01-29T21:09:24.983Z,88.57
2023-01-29T21:11:53.124Z,87.91
2023-01-29T21:14:21.410Z,88.56
2023-01-29T21:16:49.497Z,88.46
2023-01-29T21:19:17.685Z,89.05
2023-01-29T21:21:45.836Z,89.17
2023-01-29T21:24:15.219Z,89.53
2023-01-29T21:26:45.011Z,89.93
2023-01-29T21:29:13.973Z,89.15
2023-01-29T21:31:43.700Z,89.26
2023-01-29T21:34:11.781Z,89.44
2023-01-29T21:36:40.051Z,90.01
2023-01-29T21:39:17.593Z,89.64
2023-01-29T21:42:05.414Z,89.73
2023-01-29T21:44:34.122Z,90.24
2023-01-29T21:47:12.635Z,89.95
2023-01-29T21:49:42.592Z,89.82
2023-01-29T21:52:12.855Z,90.32
2023-01-29T21:54:41.778Z,90.63
2023-01-29T21:57:15.097Z,89.78
2023-01-29T21:59:43.225Z,89.41
2023-01-29T22:02:16.204Z,90.24
2023-01-29T22:04:44.554Z,90.70
2023-01-29T22:07:13.795Z,90.33
2023-01-29T22:09:42.289Z,90.07
2023-01-29T22:12:12.185Z,89.91
2023-01-29T22:14:41.978Z,89.71
2023-01-29T22:17:10.750Z,89.67
2023-01-29T22:19:38.876Z,89.15
2023-01-29T22:22:07.892Z,89.56
2023-01-29T22:24:35.969Z,89.29
2023-01-29T22:27:04.100Z,88.80
2023-01-29T22:29:33.775Z,88.99
2023-01-29T22:32:01.908Z,89.21
2023-01-29T22:34:30.052Z,89.49
2023-01-29T22:36:58.098Z,89.00
2023-01-29T22:39:26.233Z,88.25
2023-01-29T22:41:54.377Z,88.56
2023-01-29T22:44:22.543Z,88.83
2023-01-29T22:46:51.949Z,88.53
2023-01-29T22:49:20.686Z,88.75
2023-01-29T22:52:08.832Z,89.71
2023-01-29T22:54:37.651Z,89.31
2023-01-29T22:57:05.983Z,88.61
2023-01-29T22:59:34.400Z,89.13
2023-01-29T23:02:03.845Z,88.90
2023-01-29T23:04:31.875Z,88.98
2023-01-29T23:06:59.933Z,89.10
2023-01-29T23:09:28.104Z,88.34
2023-01-29T23:11:56.268Z,87.77
2023-01-29T23:14:24.349Z,87.93
2023-01-29T23:16:52.458Z,88.48
2023-01-29T23:19:22.123Z,88.51
2023-01-29T23:21:50.190Z,87.88
2023-01-29T23:24:18.407Z,86.83
2023-01-29T23:27:04.303Z,87.05
2023-01-29T23:29:32.355Z,87.77
2023-01-29T23:32:00.664Z,87.55
2023-01-29T23:34:30.396Z,87.51
2023-01-29T23:36:58.545Z,87.63
2023-01-29T23:39:26.675Z,87.97
2023-01-29T23:41:54.825Z,87.24
2023-01-29T23:44:22.972Z,86.44
2023-01-29T23:46:51.188Z,86.71
2023-01-29T23:49:19.654Z,87.40
2023-01-29T23:51:50.569Z,86.56
2023-01-29T23:54:19.176Z,86.77
2023-01-29T23:56:47.255Z,86.21
2023-01-29T23:59:15.956Z,86.62
